createdAt,value
2019-02-21T00:00:35.294Z,230.70
2019-02-21T00:01:10.537Z,229.50
2019-02-21T00:01:46.250Z,215.30
2019-02-21T00:02:21.518Z,220.50
2019-02-21T00:02:56.731Z,232.20
2019-02-21T00:03:32.058Z,224.70
2019-02-21T00:04:07.468Z,234.80
2019-02-21T00:04:42.707Z,234.50
2019-02-21T00:05:18.010Z,241.60
2019-02-21T00:05:53.556Z,229.70
2019-02-21T00:06:29.053Z,197.70
2019-02-21T00:07:04.582Z,213.90
2019-02-21T00:07:40.340Z,245.90
2019-02-21T00:08:15.874Z,253.80
2019-02-21T00:08:51.064Z,242.80
2019-02-21T00:09:26.220Z,239.90
2019-02-21T00:10:01.962Z,241.00
2019-02-21T00:10:37.387Z,229.30
2019-02-21T00:11:12.589Z,232.00
2019-02-21T00:11:48.008Z,222.60
2019-02-21T00:12:23.240Z,239.10
2019-02-21T00:12:58.441Z,242.80
2019-02-21T00:13:33.793Z,224.30
2019-02-21T00:14:09.295Z,220.50
2019-02-21T00:14:44.520Z,227.90
2019-02-21T00:15:19.771Z,235.30
2019-02-21T00:15:54.977Z,252.80
2019-02-21T00:16:30.402Z,224.70
2019-02-21T00:17:05.821Z,204.80
2019-02-21T00:17:41.040Z,210.80
2019-02-21T00:18:16.676Z,233.00
2019-02-21T00:18:51.941Z,242.20
2019-02-21T00:19:27.206Z,248.40
2019-02-21T00:20:02.452Z,228.50
2019-02-21T00:20:37.895Z,194.60
2019-02-21T00:21:13.046Z,215.30
2019-02-21T00:21:48.160Z,213.60
2019-02-21T00:22:23.718Z,215.60
2019-02-21T00:22:59.316Z,213.50
2019-02-21T00:23:34.803Z,198.80
2019-02-21T00:24:10.141Z,216.00
2019-02-21T00:24:45.357Z,228.40
2019-02-21T00:25:20.821Z,229.00
2019-02-21T00:25:56.401Z,216.00
2019-02-21T00:26:31.806Z,223.00
2019-02-21T00:27:07.230Z,231.40
2019-02-21T00:27:42.511Z,223.50
2019-02-21T00:28:17.635Z,202.20
2019-02-21T00:28:52.857Z,223.10
2019-02-21T00:29:28.256Z,230.90
2019-02-21T00:30:03.510Z,225.50
2019-02-21T00:30:39.027Z,221.70
2019-02-21T00:31:14.354Z,225.40
2019-02-21T00:31:49.463Z,235.50
2019-02-21T00:32:24.791Z,234.70
2019-02-21T00:33:00.114Z,232.20
2019-02-21T00:33:35.471Z,229.30
2019-02-21T00:34:10.906Z,203.10
2019-02-21T00:34:46.434Z,212.40
2019-02-21T00:35:21.854Z,226.20
2019-02-21T00:35:57.705Z,259.00
2019-02-21T00:36:33.128Z,240.50
2019-02-21T00:37:08.329Z,210.50
2019-02-21T00:37:43.577Z,253.10
2019-02-21T00:38:18.787Z,248.60
2019-02-21T00:38:54.293Z,264.70
2019-02-21T00:39:30.350Z,227.80
2019-02-21T00:40:06.035Z,211.00
2019-02-21T00:40:41.281Z,218.60
2019-02-21T00:41:16.881Z,213.30
2019-02-21T00:41:52.278Z,209.80
2019-02-21T00:42:28.005Z,236.40
2019-02-21T00:43:03.370Z,233.90
2019-02-21T00:43:38.619Z,229.70
2019-02-21T00:44:14.133Z,247.20
2019-02-21T00:44:50.504Z,247.50
2019-02-21T00:45:25.831Z,256.70
2019-02-21T00:46:01.182Z,249.10
2019-02-21T00:46:36.588Z,228.00
2019-02-21T00:47:11.917Z,220.00
2019-02-21T00:47:47.713Z,217.50
2019-02-21T00:48:23.097Z,201.60
2019-02-21T00:48:58.321Z,223.20
2019-02-21T00:49:33.630Z,227.20
2019-02-21T00:50:09.047Z,211.80
2019-02-21T00:50:44.369Z,236.00
2019-02-21T00:51:20.489Z,232.40
2019-02-21T00:51:55.888Z,207.80
2019-02-21T00:52:31.436Z,211.20
2019-02-21T00:53:06.221Z,231.10
2019-02-21T00:53:41.622Z,239.60
2019-02-21T00:54:17.029Z,236.70
2019-02-21T00:54:52.222Z,238.80
2019-02-21T00:55:27.992Z,225.70
2019-02-21T00:56:02.961Z,248.20
2019-02-21T00:56:38.286Z,240.80
2019-02-21T00:57:13.489Z,226.00
2019-02-21T00:57:48.635Z,228.60
2019-02-21T00:58:24.040Z,232.30
2019-02-21T00:58:59.578Z,240.80
2019-02-21T00:59:34.895Z,240.20
2019-02-21T01:00:10.744Z,240.50
2019-02-21T01:00:46.915Z,231.30
2019-02-21T01:01:21.387Z,249.00
2019-02-21T01:01:56.725Z,264.30
2019-02-21T01:02:32.033Z,252.90
2019-02-21T01:03:07.584Z,249.30
2019-02-21T01:03:42.886Z,250.00
2019-02-21T01:04:18.409Z,247.30
2019-02-21T01:04:54.044Z,240.60
2019-02-21T01:05:29.370Z,233.40
2019-02-21T01:06:04.835Z,211.70
2019-02-21T01:06:40.044Z,205.30
2019-02-21T01:07:15.478Z,234.90
2019-02-21T01:07:50.882Z,253.10
2019-02-21T01:08:26.401Z,235.40
2019-02-21T01:09:01.631Z,239.40
2019-02-21T01:09:36.739Z,207.10
2019-02-21T01:10:11.948Z,222.80
2019-02-21T01:10:47.173Z,232.50
2019-02-21T01:11:22.417Z,230.90
2019-02-21T01:11:58.124Z,240.00
2019-02-21T01:12:33.654Z,252.00
2019-02-21T01:13:09.100Z,245.40
2019-02-21T01:13:44.285Z,213.70
2019-02-21T01:14:19.225Z,207.30
2019-02-21T01:14:54.691Z,242.70
2019-02-21T01:15:30.015Z,237.90
2019-02-21T01:16:05.476Z,210.80
2019-02-21T01:16:40.711Z,217.70
2019-02-21T01:17:16.026Z,225.50
2019-02-21T01:17:51.653Z,219.40
2019-02-21T01:18:26.895Z,229.40
2019-02-21T01:19:02.500Z,243.80
2019-02-21T01:19:37.838Z,231.00
2019-02-21T01:20:13.237Z,215.60
2019-02-21T01:20:48.672Z,233.60
2019-02-21T01:21:24.231Z,224.10
2019-02-21T01:21:59.435Z,229.00
2019-02-21T01:22:35.157Z,222.40
2019-02-21T01:23:10.250Z,226.60
2019-02-21T01:23:45.663Z,214.50
2019-02-21T01:24:21.093Z,228.50
2019-02-21T01:24:56.301Z,234.80
2019-02-21T01:25:31.818Z,239.10
2019-02-21T01:26:07.112Z,241.80
2019-02-21T01:26:42.582Z,244.00
2019-02-21T01:27:17.869Z,247.40
2019-02-21T01:27:53.386Z,226.70
2019-02-21T01:28:28.798Z,230.10
2019-02-21T01:29:04.155Z,231.70
2019-02-21T01:29:39.408Z,224.50
2019-02-21T01:30:14.909Z,217.60
2019-02-21T01:30:56.745Z,238.90
2019-02-21T01:31:25.828Z,238.10
2019-02-21T01:32:01.483Z,242.50
2019-02-21T01:32:36.913Z,243.10
2019-02-21T01:33:12.106Z,221.90
2019-02-21T01:33:47.522Z,227.80
2019-02-21T01:34:23.126Z,234.30
2019-02-21T01:34:58.358Z,216.00
2019-02-21T01:35:33.605Z,201.80
2019-02-21T01:36:08.809Z,218.40
2019-02-21T01:36:44.128Z,233.20
2019-02-21T01:37:19.461Z,240.20
2019-02-21T01:37:55.074Z,239.30
2019-02-21T01:38:30.757Z,229.40
2019-02-21T01:39:06.421Z,226.10
2019-02-21T01:39:41.870Z,233.60
2019-02-21T01:40:17.231Z,226.40
2019-02-21T01:40:52.448Z,228.30
2019-02-21T01:41:27.545Z,224.80
2019-02-21T01:42:02.969Z,207.40
2019-02-21T01:42:38.105Z,211.70
2019-02-21T01:43:13.434Z,228.90
2019-02-21T01:43:48.720Z,235.70
2019-02-21T01:44:24.075Z,235.20
2019-02-21T01:44:59.195Z,220.00
2019-02-21T01:45:34.386Z,237.20
2019-02-21T01:46:09.526Z,235.20
2019-02-21T01:46:44.976Z,218.40
2019-02-21T01:47:20.410Z,238.10
2019-02-21T01:47:55.740Z,211.90
2019-02-21T01:48:31.067Z,206.30
2019-02-21T01:49:06.574Z,228.70
2019-02-21T01:49:41.901Z,245.20
2019-02-21T01:50:17.201Z,238.20
2019-02-21T01:50:52.639Z,226.00
2019-02-21T01:51:28.023Z,212.40
2019-02-21T01:52:03.669Z,225.20
2019-02-21T01:52:39.175Z,239.20
2019-02-21T01:53:14.447Z,237.90
2019-02-21T01:53:49.754Z,241.40
2019-02-21T01:54:25.267Z,220.80
2019-02-21T01:55:00.679Z,235.90
2019-02-21T01:55:36.009Z,239.30
2019-02-21T01:56:11.422Z,248.80
2019-02-21T01:56:46.845Z,260.70
2019-02-21T01:57:22.053Z,250.20
2019-02-21T01:57:57.362Z,241.30
2019-02-21T01:58:32.613Z,256.40
2019-02-21T01:59:08.008Z,256.30
2019-02-21T01:59:43.424Z,235.00
2019-02-21T02:00:18.631Z,234.80
2019-02-21T02:00:54.030Z,248.20
2019-02-21T02:01:29.142Z,253.00
2019-02-21T02:02:04.546Z,247.50
2019-02-21T02:02:39.675Z,258.20
2019-02-21T02:03:15.091Z,264.70
2019-02-21T02:03:50.231Z,257.50
2019-02-21T02:04:25.451Z,236.40
2019-02-21T02:05:00.842Z,233.70
2019-02-21T02:05:36.166Z,235.20
2019-02-21T02:06:11.562Z,235.90
2019-02-21T02:06:46.987Z,239.80
2019-02-21T02:07:22.224Z,220.30
2019-02-21T02:07:57.525Z,198.70
2019-02-21T02:08:32.763Z,227.90
2019-02-21T02:09:08.010Z,247.80
2019-02-21T02:09:43.349Z,248.80
2019-02-21T02:10:18.675Z,227.10
2019-02-21T02:10:54.075Z,207.70
2019-02-21T02:11:29.492Z,215.80
2019-02-21T02:12:04.590Z,236.80
2019-02-21T02:12:40.207Z,240.10
2019-02-21T02:13:24.085Z,220.70
2019-02-21T02:13:50.776Z,218.50
2019-02-21T02:14:26.132Z,196.70
2019-02-21T02:15:01.419Z,185.40
2019-02-21T02:15:36.767Z,210.20
2019-02-21T02:16:12.057Z,232.00
2019-02-21T02:16:47.477Z,212.30
2019-02-21T02:17:22.681Z,206.30
2019-02-21T02:17:57.978Z,216.60
2019-02-21T02:18:33.698Z,203.10
2019-02-21T02:19:09.264Z,236.90
2019-02-21T02:19:44.734Z,204.10
2019-02-21T02:20:20.130Z,225.70
2019-02-21T02:20:55.346Z,231.30
2019-02-21T02:21:30.870Z,220.20
2019-02-21T02:22:06.101Z,209.40
2019-02-21T02:22:41.514Z,202.00
2019-02-21T02:23:16.924Z,213.70
2019-02-21T02:23:52.323Z,217.90
2019-02-21T02:24:28.163Z,236.60
2019-02-21T02:25:03.395Z,230.10
2019-02-21T02:25:38.826Z,207.70
2019-02-21T02:26:14.119Z,205.00
2019-02-21T02:26:49.555Z,231.70
2019-02-21T02:27:24.944Z,242.90
2019-02-21T02:28:00.492Z,235.50
2019-02-21T02:28:36.065Z,243.20
2019-02-21T02:29:11.193Z,238.70
2019-02-21T02:29:46.722Z,216.80
2019-02-21T02:30:22.079Z,232.90
2019-02-21T02:30:57.581Z,227.50
2019-02-21T02:31:32.902Z,231.70
2019-02-21T02:32:09.655Z,230.90
2019-02-21T02:32:43.624Z,227.50
2019-02-21T02:33:19.058Z,238.30
2019-02-21T02:33:54.481Z,221.20
2019-02-21T02:34:29.873Z,231.00
2019-02-21T02:35:05.302Z,238.10
2019-02-21T02:35:40.720Z,234.40
2019-02-21T02:36:16.335Z,253.40
2019-02-21T02:36:51.869Z,236.90
2019-02-21T02:37:27.184Z,201.10
2019-02-21T02:38:02.517Z,232.80
2019-02-21T02:38:37.926Z,253.30
2019-02-21T02:39:13.343Z,229.20
2019-02-21T02:39:48.838Z,222.60
2019-02-21T02:40:24.249Z,233.40
2019-02-21T02:40:59.297Z,237.60
2019-02-21T02:41:34.796Z,224.80
2019-02-21T02:42:10.319Z,231.50
2019-02-21T02:42:45.922Z,215.40
2019-02-21T02:43:21.149Z,223.20
2019-02-21T02:43:56.648Z,234.30
2019-02-21T02:44:31.872Z,222.50
2019-02-21T02:45:07.307Z,225.90
2019-02-21T02:45:42.507Z,236.90
2019-02-21T02:46:17.877Z,237.00
2019-02-21T02:46:53.380Z,236.00
2019-02-21T02:47:28.517Z,222.10
2019-02-21T02:48:04.223Z,215.80
2019-02-21T02:48:39.754Z,197.40
2019-02-21T02:49:15.863Z,205.40
2019-02-21T02:49:50.852Z,224.50
2019-02-21T02:50:26.077Z,206.20
2019-02-21T02:51:01.397Z,218.00
2019-02-21T02:51:37.038Z,220.60
2019-02-21T02:52:12.344Z,213.20
2019-02-21T02:52:47.871Z,212.50
2019-02-21T02:53:23.218Z,212.20
2019-02-21T02:53:58.517Z,230.10
2019-02-21T02:54:34.242Z,239.90
2019-02-21T02:55:09.730Z,237.80
2019-02-21T02:55:45.259Z,237.80
2019-02-21T02:56:20.883Z,229.80
2019-02-21T02:56:56.309Z,226.10
2019-02-21T02:57:31.842Z,234.10
2019-02-21T02:58:07.348Z,241.10
2019-02-21T02:58:45.321Z,234.50
2019-02-21T02:59:18.091Z,228.20
2019-02-21T02:59:53.517Z,236.30
2019-02-21T03:00:28.956Z,238.10
2019-02-21T03:01:04.269Z,215.40
2019-02-21T03:01:39.665Z,223.70
2019-02-21T03:02:15.091Z,234.80
2019-02-21T03:02:50.729Z,228.30
2019-02-21T03:03:25.846Z,245.60
2019-02-21T03:04:01.227Z,235.00
2019-02-21T03:04:36.973Z,231.20
2019-02-21T03:05:12.481Z,238.10
2019-02-21T03:05:47.895Z,215.40
2019-02-21T03:06:23.200Z,207.40
2019-02-21T03:06:58.616Z,230.00
2019-02-21T03:07:34.187Z,233.20
2019-02-21T03:08:09.883Z,240.10
2019-02-21T03:08:45.196Z,221.00
2019-02-21T03:09:20.815Z,211.70
2019-02-21T03:09:56.634Z,212.40
2019-02-21T03:10:32.245Z,202.30
2019-02-21T03:11:08.070Z,211.10
2019-02-21T03:11:43.397Z,233.60
2019-02-21T03:12:18.593Z,246.30
2019-02-21T03:12:53.945Z,247.20
2019-02-21T03:13:29.455Z,225.20
2019-02-21T03:14:04.785Z,209.00
2019-02-21T03:14:40.291Z,224.50
2019-02-21T03:15:15.602Z,224.90
2019-02-21T03:15:51.027Z,215.40
2019-02-21T03:16:26.419Z,213.50
2019-02-21T03:17:01.741Z,227.90
2019-02-21T03:17:37.047Z,242.60
2019-02-21T03:18:12.709Z,221.60
2019-02-21T03:18:48.142Z,196.50
2019-02-21T03:19:23.543Z,207.00
2019-02-21T03:19:58.757Z,215.50
2019-02-21T03:20:33.954Z,219.40
2019-02-21T03:21:09.164Z,213.70
2019-02-21T03:21:44.923Z,221.60
2019-02-21T03:22:20.320Z,228.80
2019-02-21T03:22:55.647Z,248.10
2019-02-21T03:23:30.977Z,248.10
2019-02-21T03:24:06.301Z,228.20
2019-02-21T03:24:41.710Z,213.90
2019-02-21T03:25:17.019Z,221.60
2019-02-21T03:25:52.517Z,203.50
2019-02-21T03:26:27.849Z,220.50
2019-02-21T03:27:03.502Z,217.00
2019-02-21T03:27:58.795Z,221.20
2019-02-21T03:28:34.525Z,213.40
2019-02-21T03:29:09.845Z,205.80
2019-02-21T03:29:45.436Z,220.20
2019-02-21T03:30:20.965Z,226.30
2019-02-21T03:30:56.464Z,224.10
2019-02-21T03:31:31.791Z,226.40
2019-02-21T03:32:07.209Z,209.20
2019-02-21T03:32:42.703Z,205.70
2019-02-21T03:33:17.842Z,213.00
2019-02-21T03:33:53.159Z,236.20
2019-02-21T03:34:28.586Z,232.70
2019-02-21T03:35:03.621Z,224.40
2019-02-21T03:35:39.204Z,208.70
2019-02-21T03:36:14.632Z,204.20
2019-02-21T03:36:50.030Z,228.10
2019-02-21T03:37:25.242Z,228.20
2019-02-21T03:38:00.670Z,229.50
2019-02-21T03:38:36.087Z,241.80
2019-02-21T03:39:11.559Z,215.20
2019-02-21T03:39:46.750Z,204.20
2019-02-21T03:40:22.005Z,193.60
2019-02-21T03:40:58.011Z,222.70
2019-02-21T03:41:33.709Z,234.80
2019-02-21T03:42:09.116Z,234.60
2019-02-21T03:42:44.628Z,228.80
2019-02-21T03:43:19.948Z,238.30
2019-02-21T03:43:55.170Z,201.00
2019-02-21T03:44:30.319Z,193.10
2019-02-21T03:45:05.727Z,216.50
2019-02-21T03:45:40.963Z,218.80
2019-02-21T03:46:16.385Z,232.30
2019-02-21T03:46:51.688Z,222.40
2019-02-21T03:47:27.524Z,205.10
2019-02-21T03:48:03.064Z,224.20
2019-02-21T03:48:38.460Z,237.40
2019-02-21T03:49:13.765Z,233.30
2019-02-21T03:49:49.432Z,241.90
2019-02-21T03:50:24.867Z,246.10
2019-02-21T03:51:00.479Z,234.00
2019-02-21T03:51:35.802Z,241.80
2019-02-21T03:52:10.992Z,215.70
2019-02-21T03:52:46.320Z,217.40
2019-02-21T03:53:21.546Z,242.60
2019-02-21T03:53:56.839Z,248.50
2019-02-21T03:54:32.153Z,221.70
2019-02-21T03:55:07.610Z,239.10
2019-02-21T03:55:43.106Z,228.30
2019-02-21T03:56:18.709Z,216.30
2019-02-21T03:56:54.045Z,240.60
2019-02-21T03:57:29.504Z,245.60
2019-02-21T03:58:04.998Z,233.40
2019-02-21T03:58:40.429Z,223.30
2019-02-21T03:59:16.088Z,208.80
2019-02-21T03:59:51.347Z,222.50
2019-02-21T04:00:26.889Z,232.70
2019-02-21T04:01:02.103Z,231.20
2019-02-21T04:01:37.528Z,239.10
2019-02-21T04:02:12.927Z,227.60
2019-02-21T04:02:48.252Z,223.30
2019-02-21T04:03:23.551Z,225.20
2019-02-21T04:03:58.969Z,233.70
2019-02-21T04:04:34.329Z,245.10
2019-02-21T04:05:09.709Z,220.90
2019-02-21T04:05:45.074Z,221.60
2019-02-21T04:06:20.369Z,234.10
2019-02-21T04:06:55.785Z,226.80
2019-02-21T04:07:30.992Z,200.30
2019-02-21T04:08:06.414Z,215.40
2019-02-21T04:08:41.615Z,234.20
2019-02-21T04:09:17.163Z,230.50
2019-02-21T04:09:52.278Z,222.00
2019-02-21T04:10:27.877Z,205.20
2019-02-21T04:11:03.444Z,206.60
2019-02-21T04:11:38.829Z,229.70
2019-02-21T04:12:14.371Z,236.90
2019-02-21T04:12:49.656Z,235.80
2019-02-21T04:13:25.371Z,237.00
2019-02-21T04:14:00.900Z,229.10
2019-02-21T04:14:36.786Z,219.90
2019-02-21T04:15:12.139Z,218.00
2019-02-21T04:15:47.432Z,200.50
2019-02-21T04:16:22.813Z,211.20
2019-02-21T04:16:58.352Z,232.40
2019-02-21T04:17:33.659Z,245.50
2019-02-21T04:18:09.003Z,231.10
2019-02-21T04:18:44.645Z,206.40
2019-02-21T04:19:20.070Z,212.70
2019-02-21T04:19:55.493Z,222.20
2019-02-21T04:20:30.927Z,238.60
2019-02-21T04:21:06.353Z,229.70
2019-02-21T04:21:41.583Z,222.20
2019-02-21T04:22:17.003Z,233.00
2019-02-21T04:22:52.302Z,231.10
2019-02-21T04:23:27.547Z,243.70
2019-02-21T04:24:02.856Z,235.20
2019-02-21T04:24:38.172Z,222.30
2019-02-21T04:25:13.897Z,211.90
2019-02-21T04:25:49.318Z,212.50
2019-02-21T04:26:24.433Z,217.20
2019-02-21T04:26:59.782Z,227.70
2019-02-21T04:27:35.108Z,231.30
2019-02-21T04:28:10.407Z,232.80
2019-02-21T04:28:45.911Z,224.30
2019-02-21T04:29:20.763Z,206.50
2019-02-21T04:29:56.050Z,218.50
2019-02-21T04:30:31.361Z,222.10
2019-02-21T04:31:06.853Z,216.80
2019-02-21T04:31:42.381Z,219.30
2019-02-21T04:32:17.833Z,223.30
2019-02-21T04:32:53.456Z,232.70
2019-02-21T04:33:28.996Z,223.90
2019-02-21T04:34:04.383Z,204.00
2019-02-21T04:34:39.704Z,232.10
2019-02-21T04:35:14.804Z,235.30
2019-02-21T04:35:50.112Z,231.90
2019-02-21T04:36:25.442Z,239.00
2019-02-21T04:37:00.562Z,224.80
2019-02-21T04:37:35.902Z,217.30
2019-02-21T04:38:11.492Z,221.50
2019-02-21T04:38:47.111Z,243.50
2019-02-21T04:39:22.433Z,221.70
2019-02-21T04:39:57.744Z,211.60
2019-02-21T04:40:34.066Z,221.40
2019-02-21T04:41:09.251Z,227.10
2019-02-21T04:41:46.785Z,240.10
2019-02-21T04:42:21.877Z,218.50
2019-02-21T04:42:57.140Z,229.80
2019-02-21T04:43:32.631Z,238.60
2019-02-21T04:44:07.937Z,237.90
2019-02-21T04:44:43.274Z,228.10
2019-02-21T04:45:18.371Z,225.50
2019-02-21T04:45:53.937Z,238.80
2019-02-21T04:46:29.334Z,215.80
2019-02-21T04:47:04.469Z,242.90
2019-02-21T04:47:39.911Z,232.60
2019-02-21T04:48:15.141Z,234.50
2019-02-21T04:48:50.660Z,230.60
2019-02-21T04:49:26.160Z,207.30
2019-02-21T04:50:01.499Z,213.30
2019-02-21T04:50:36.801Z,238.10
2019-02-21T04:51:12.339Z,232.10
2019-02-21T04:51:47.862Z,224.10
2019-02-21T04:52:23.169Z,227.10
2019-02-21T04:52:58.500Z,231.50
2019-02-21T04:53:33.815Z,223.10
2019-02-21T04:54:09.138Z,227.70
2019-02-21T04:54:44.530Z,218.70
2019-02-21T04:55:19.945Z,224.90
2019-02-21T04:55:55.163Z,228.90
2019-02-21T04:56:30.389Z,216.70
2019-02-21T04:57:05.821Z,198.00
2019-02-21T04:57:41.247Z,199.70
2019-02-21T04:58:16.759Z,218.20
2019-02-21T04:58:52.311Z,222.90
2019-02-21T04:59:27.704Z,219.90
2019-02-21T05:00:03.229Z,210.30
2019-02-21T05:00:38.351Z,196.40
2019-02-21T05:01:13.663Z,213.40
2019-02-21T05:01:49.184Z,236.10
2019-02-21T05:02:28.871Z,210.10
2019-02-21T05:03:00.321Z,198.90
2019-02-21T05:03:35.842Z,203.80
2019-02-21T05:04:11.190Z,206.50
2019-02-21T05:04:46.520Z,218.00
2019-02-21T05:05:21.727Z,220.70
2019-02-21T05:05:57.044Z,235.90
2019-02-21T05:06:32.347Z,232.70
2019-02-21T05:07:07.464Z,234.10
2019-02-21T05:07:42.960Z,218.90
2019-02-21T05:08:18.496Z,192.50
2019-02-21T05:08:54.201Z,193.40
2019-02-21T05:09:29.706Z,223.60
2019-02-21T05:10:04.897Z,199.10
2019-02-21T05:10:40.112Z,208.10
2019-02-21T05:11:15.327Z,225.10
2019-02-21T05:11:50.992Z,235.20
2019-02-21T05:12:26.399Z,231.90
2019-02-21T05:13:01.875Z,226.10
2019-02-21T05:13:37.591Z,235.70
2019-02-21T05:14:13.212Z,235.90
2019-02-21T05:14:48.950Z,210.70
2019-02-21T05:15:24.407Z,213.80
2019-02-21T05:15:59.838Z,211.70
2019-02-21T05:16:35.069Z,207.50
2019-02-21T05:17:10.721Z,226.20
2019-02-21T05:17:46.165Z,225.20
2019-02-21T05:18:21.449Z,227.10
2019-02-21T05:18:56.688Z,235.30
2019-02-21T05:19:31.900Z,225.50
2019-02-21T05:20:07.176Z,225.10
2019-02-21T05:20:42.532Z,231.30
2019-02-21T05:21:18.408Z,225.00
2019-02-21T05:21:53.796Z,236.30
2019-02-21T05:22:29.136Z,246.90
2019-02-21T05:23:04.566Z,236.80
2019-02-21T05:23:40.012Z,211.10
2019-02-21T05:24:15.328Z,226.60
2019-02-21T05:24:50.875Z,229.20
2019-02-21T05:25:25.997Z,221.80
2019-02-21T05:26:01.428Z,234.40
2019-02-21T05:26:36.922Z,219.90
2019-02-21T05:27:12.264Z,208.50
2019-02-21T05:27:47.650Z,207.50
2019-02-21T05:28:22.794Z,218.80
2019-02-21T05:28:58.202Z,212.40
2019-02-21T05:29:33.536Z,221.10
2019-02-21T05:30:08.636Z,229.70
2019-02-21T05:30:44.208Z,220.40
2019-02-21T05:31:19.496Z,207.80
2019-02-21T05:31:54.816Z,220.10
2019-02-21T05:32:40.466Z,234.10
2019-02-21T05:33:05.559Z,237.60
2019-02-21T05:33:41.050Z,227.80
2019-02-21T05:34:16.289Z,212.60
2019-02-21T05:34:51.370Z,212.10
2019-02-21T05:35:26.484Z,201.10
2019-02-21T05:36:01.908Z,203.70
2019-02-21T05:36:37.347Z,207.00
2019-02-21T05:37:12.452Z,204.40
2019-02-21T05:37:47.913Z,201.60
2019-02-21T05:38:23.305Z,189.50
2019-02-21T05:38:58.530Z,206.50
2019-02-21T05:39:33.829Z,214.10
2019-02-21T05:40:09.266Z,218.60
2019-02-21T05:40:44.261Z,210.80
2019-02-21T05:41:19.971Z,197.60
2019-02-21T05:41:55.530Z,203.40
2019-02-21T05:42:30.949Z,211.70
2019-02-21T05:43:06.328Z,228.90
2019-02-21T05:43:41.764Z,218.20
2019-02-21T05:44:17.150Z,214.60
2019-02-21T05:44:52.590Z,205.50
2019-02-21T05:45:27.899Z,200.20
2019-02-21T05:46:03.033Z,196.20
2019-02-21T05:46:38.367Z,200.60
2019-02-21T05:47:13.983Z,214.30
2019-02-21T05:47:49.181Z,233.20
2019-02-21T05:48:24.612Z,210.80
2019-02-21T05:48:59.741Z,199.90
2019-02-21T05:49:35.176Z,189.50
2019-02-21T05:50:10.773Z,204.70
2019-02-21T05:50:46.290Z,230.00
2019-02-21T05:51:21.489Z,216.50
2019-02-21T05:51:56.946Z,210.80
2019-02-21T05:52:32.444Z,197.60
2019-02-21T05:53:07.582Z,172.30
2019-02-21T05:53:42.969Z,192.50
2019-02-21T05:54:18.599Z,216.20
2019-02-21T05:54:53.896Z,209.70
2019-02-21T05:55:29.220Z,207.30
2019-02-21T05:56:04.814Z,196.50
2019-02-21T05:56:40.153Z,201.00
2019-02-21T05:57:15.569Z,197.20
2019-02-21T05:57:50.986Z,202.30
2019-02-21T05:58:26.196Z,211.10
2019-02-21T05:59:02.064Z,207.80
2019-02-21T05:59:37.465Z,220.20
2019-02-21T06:00:12.959Z,212.60
2019-02-21T06:00:48.183Z,191.90
2019-02-21T06:01:24.024Z,204.00
2019-02-21T06:01:59.344Z,201.20
2019-02-21T06:02:34.804Z,209.50
2019-02-21T06:03:10.117Z,210.00
2019-02-21T06:03:45.538Z,193.90
2019-02-21T06:04:20.689Z,179.90
2019-02-21T06:04:56.227Z,207.40
2019-02-21T06:05:31.412Z,216.90
2019-02-21T06:06:06.752Z,226.40
2019-02-21T06:06:42.147Z,199.20
2019-02-21T06:07:17.171Z,193.20
2019-02-21T06:07:52.497Z,193.40
2019-02-21T06:08:28.129Z,208.60
2019-02-21T06:09:03.641Z,208.60
2019-02-21T06:09:38.968Z,213.00
2019-02-21T06:10:14.479Z,201.30
2019-02-21T06:10:49.693Z,205.00
2019-02-21T06:11:24.901Z,193.40
2019-02-21T06:12:00.218Z,194.70
2019-02-21T06:12:35.723Z,203.10
2019-02-21T06:13:11.082Z,200.60
2019-02-21T06:13:46.396Z,200.80
2019-02-21T06:14:21.440Z,221.50
2019-02-21T06:14:57.233Z,212.70
2019-02-21T06:15:32.552Z,217.80
2019-02-21T06:16:07.849Z,220.90
2019-02-21T06:16:43.092Z,225.30
2019-02-21T06:17:18.480Z,233.00
2019-02-21T06:17:53.932Z,224.80
2019-02-21T06:18:29.469Z,199.50
2019-02-21T06:19:04.687Z,194.70
2019-02-21T06:19:40.194Z,210.20
2019-02-21T06:20:17.715Z,191.70
2019-02-21T06:20:51.027Z,202.00
2019-02-21T06:21:26.195Z,208.80
2019-02-21T06:22:10.169Z,191.10
2019-02-21T06:22:36.795Z,206.50
2019-02-21T06:23:11.997Z,205.90
2019-02-21T06:23:49.248Z,203.00
2019-02-21T06:24:22.764Z,208.00
2019-02-21T06:24:58.131Z,213.70
2019-02-21T06:25:33.529Z,212.00
2019-02-21T06:26:09.174Z,226.80
2019-02-21T06:26:44.769Z,222.60
2019-02-21T06:27:20.208Z,214.40
2019-02-21T06:27:58.265Z,216.10
2019-02-21T06:28:32.090Z,213.60
2019-02-21T06:29:09.695Z,212.20
2019-02-21T06:29:42.661Z,206.80
2019-02-21T06:30:18.048Z,202.70
2019-02-21T06:30:53.488Z,199.00
2019-02-21T06:31:28.774Z,198.40
2019-02-21T06:32:13.531Z,209.00
2019-02-21T06:32:40.632Z,212.30
2019-02-21T06:33:14.285Z,221.40
2019-02-21T06:33:49.679Z,221.10
2019-02-21T06:34:24.951Z,207.30
2019-02-21T06:35:02.677Z,221.50
2019-02-21T06:35:36.859Z,221.70
2019-02-21T06:36:12.933Z,217.70
2019-02-21T06:36:48.263Z,205.30
2019-02-21T06:37:23.686Z,202.80
2019-02-21T06:37:58.825Z,195.40
2019-02-21T06:38:34.128Z,204.60
2019-02-21T06:39:09.443Z,204.50
2019-02-21T06:39:44.763Z,207.40
2019-02-21T06:40:20.297Z,223.60
2019-02-21T06:40:55.585Z,213.20
2019-02-21T06:41:31.016Z,208.50
2019-02-21T06:42:07.144Z,199.50
2019-02-21T06:42:42.675Z,186.60
2019-02-21T06:43:17.971Z,195.20
2019-02-21T06:43:53.412Z,198.20
2019-02-21T06:44:28.512Z,211.20
2019-02-21T06:45:03.827Z,218.40
2019-02-21T06:45:39.222Z,221.80
2019-02-21T06:46:14.478Z,225.50
2019-02-21T06:46:49.770Z,208.30
2019-02-21T06:47:25.233Z,200.80
2019-02-21T06:48:00.716Z,216.00
2019-02-21T06:48:35.939Z,221.80
2019-02-21T06:49:11.137Z,214.60
2019-02-21T06:49:46.691Z,205.70
2019-02-21T06:50:27.245Z,208.10
2019-02-21T06:51:02.134Z,205.30
2019-02-21T06:51:37.427Z,209.40
2019-02-21T06:52:15.325Z,209.90
2019-02-21T06:52:48.361Z,193.50
2019-02-21T06:53:23.880Z,221.30
2019-02-21T06:54:00.338Z,210.00
2019-02-21T06:54:35.729Z,181.60
2019-02-21T06:55:11.572Z,201.50
2019-02-21T06:55:47.392Z,215.70
2019-02-21T06:56:23.640Z,215.80
2019-02-21T06:57:02.918Z,214.30
2019-02-21T06:57:38.628Z,198.10
2019-02-21T06:58:14.119Z,197.40
2019-02-21T06:58:49.439Z,213.80
2019-02-21T06:59:24.684Z,209.80
2019-02-21T07:00:00.347Z,206.20
2019-02-21T07:00:37.069Z,215.40
2019-02-21T07:01:13.058Z,243.10
2019-02-21T07:01:48.745Z,223.00
2019-02-21T07:02:24.771Z,190.00
2019-02-21T07:03:01.066Z,215.90
2019-02-21T07:03:36.880Z,214.40
2019-02-21T07:04:12.086Z,202.70
2019-02-21T07:04:48.175Z,207.30
2019-02-21T07:05:23.672Z,232.70
2019-02-21T07:05:59.143Z,218.40
2019-02-21T07:06:34.982Z,209.90
2019-02-21T07:07:10.990Z,207.20
2019-02-21T07:07:46.613Z,211.70
2019-02-21T07:08:25.026Z,212.90
2019-02-21T07:08:59.731Z,214.30
2019-02-21T07:09:33.400Z,204.60
2019-02-21T07:10:09.199Z,186.50
2019-02-21T07:10:44.535Z,174.40
2019-02-21T07:11:20.331Z,181.20
2019-02-21T07:11:56.039Z,194.20
2019-02-21T07:12:32.858Z,227.50
2019-02-21T07:13:08.671Z,224.10
2019-02-21T07:13:44.847Z,206.20
2019-02-21T07:14:20.159Z,206.70
2019-02-21T07:14:55.761Z,208.60
2019-02-21T07:15:31.567Z,184.70
2019-02-21T07:16:06.974Z,180.60
2019-02-21T07:16:42.602Z,205.40
2019-02-21T07:17:18.278Z,209.70
2019-02-21T07:17:53.539Z,204.30
2019-02-21T07:18:29.203Z,203.60
2019-02-21T07:19:04.798Z,201.10
2019-02-21T07:19:40.564Z,197.50
2019-02-21T07:20:16.223Z,177.80
2019-02-21T07:20:51.676Z,183.00
2019-02-21T07:21:27.296Z,182.10
2019-02-21T07:22:03.198Z,200.70
2019-02-21T07:22:38.629Z,215.90